createdAt,value
2023-02-06T00:00:15.972Z,5.95
2023-02-06T00:03:20.097Z,5.85
2023-02-06T00:06:24.883Z,6.45
2023-02-06T00:09:28.308Z,5.63
2023-02-06T00:12:31.588Z,6.32
2023-02-06T00:15:35.637Z,6.22
2023-02-06T00:18:39.322Z,6.32
2023-02-06T00:21:44.027Z,5.60
2023-02-06T00:24:47.358Z,6.25
2023-02-06T00:27:50.723Z,5.32
2023-02-06T00:30:54.273Z,5.20
2023-02-06T00:33:57.730Z,5.30
2023-02-06T00:37:03.647Z,6.10
2023-02-06T00:40:07.980Z,5.45
2023-02-06T00:43:11.505Z,5.50
2023-02-06T00:46:14.992Z,6.38
2023-02-06T00:49:20.316Z,5.38
2023-02-06T00:52:25.292Z,4.78
2023-02-06T00:55:28.658Z,5.38
2023-02-06T00:58:32.028Z,4.85
2023-02-06T01:01:35.916Z,5.20
2023-02-06T01:04:39.330Z,5.30
2023-02-06T01:07:44.667Z,5.03
2023-02-06T01:10:48.304Z,5.00
2023-02-06T01:13:51.927Z,5.32
2023-02-06T01:16:55.292Z,4.40
2023-02-06T01:20:00.171Z,4.28
2023-02-06T01:23:05.140Z,4.82
2023-02-06T01:26:08.795Z,5.30
2023-02-06T01:29:12.151Z,4.25
2023-02-06T01:32:17.120Z,3.78
2023-02-06T01:35:20.705Z,4.35
2023-02-06T01:38:25.517Z,4.30
2023-02-06T01:41:28.900Z,4.43
2023-02-06T01:44:32.669Z,4.90
2023-02-06T01:47:36.016Z,4.07
2023-02-06T01:50:41.157Z,3.72
2023-02-06T01:53:50.739Z,4.15
2023-02-06T01:56:56.308Z,4.03
2023-02-06T02:00:02.590Z,4.18
2023-02-06T02:03:15.354Z,4.35
2023-02-06T02:06:21.145Z,3.72
2023-02-06T02:09:26.333Z,3.90
2023-02-06T02:12:29.811Z,4.57
2023-02-06T02:15:39.924Z,4.65
2023-02-06T02:18:52.371Z,4.22
2023-02-06T02:22:13.268Z,3.78
2023-02-06T02:25:38.583Z,4.72
2023-02-06T02:29:02.951Z,4.22
2023-02-06T02:32:24.729Z,4.05
2023-02-06T02:35:36.728Z,3.72
2023-02-06T02:38:45.201Z,3.97
2023-02-06T02:41:50.931Z,3.95
2023-02-06T02:44:56.493Z,4.85
2023-02-06T02:48:01.961Z,3.60
2023-02-06T02:51:07.168Z,3.50
2023-02-06T02:54:10.698Z,3.55
2023-02-06T02:57:15.908Z,2.95
2023-02-06T03:00:19.893Z,3.22
2023-02-06T03:03:23.789Z,3.13
2023-02-06T03:06:48.219Z,3.53
2023-02-06T03:09:59.906Z,3.13
2023-02-06T03:13:05.704Z,2.65
2023-02-06T03:16:11.060Z,3.00
2023-02-06T03:19:15.711Z,2.88
2023-02-06T03:22:19.670Z,2.97
2023-02-06T03:25:29.821Z,3.22
2023-02-06T03:28:34.196Z,2.95
2023-02-06T03:31:39.194Z,2.53
2023-02-06T03:34:58.542Z,2.70
2023-02-06T03:38:02.003Z,3.08
2023-02-06T03:41:07.433Z,2.90
2023-02-06T03:44:12.299Z,2.53
2023-02-06T03:47:17.732Z,2.75
2023-02-06T03:50:21.384Z,2.90
2023-02-06T03:53:26.295Z,2.47
2023-02-06T03:56:34.546Z,2.40
2023-02-06T03:59:37.841Z,2.22
2023-02-06T04:02:41.853Z,2.20
2023-02-06T04:05:45.253Z,2.35
2023-02-06T04:08:48.594Z,2.53
2023-02-06T04:11:53.383Z,2.45
2023-02-06T04:14:56.825Z,2.50
2023-02-06T04:18:01.673Z,2.50
2023-02-06T04:21:06.133Z,2.50
2023-02-06T04:24:09.751Z,1.98
2023-02-06T04:27:15.322Z,2.17
2023-02-06T04:30:19.007Z,2.10
2023-02-06T04:33:22.377Z,2.03
2023-02-06T04:36:25.830Z,2.33
2023-02-06T04:39:29.437Z,1.95
2023-02-06T04:42:34.148Z,2.05
2023-02-06T04:45:37.785Z,2.35
2023-02-06T04:48:41.331Z,2.33
2023-02-06T04:51:45.043Z,1.88
2023-02-06T04:54:48.385Z,2.10
2023-02-06T04:57:53.138Z,1.98
2023-02-06T05:00:56.551Z,1.52
2023-02-06T05:03:59.917Z,2.05
2023-02-06T05:07:05.439Z,1.50
2023-02-06T05:10:09.954Z,2.38
2023-02-06T05:13:14.666Z,1.80
2023-02-06T05:16:18.290Z,1.15
2023-02-06T05:19:21.806Z,1.77
2023-02-06T05:22:25.264Z,2.47
2023-02-06T05:25:28.726Z,1.98
2023-02-06T05:28:34.272Z,1.95
2023-02-06T05:31:38.006Z,2.30
2023-02-06T05:34:41.690Z,1.80
2023-02-06T05:37:47.508Z,2.05
2023-02-06T05:40:54.258Z,1.73
2023-02-06T05:43:59.376Z,1.98
2023-02-06T05:47:02.853Z,1.75
2023-02-06T05:50:06.764Z,1.98
2023-02-06T05:53:10.176Z,2.60
2023-02-06T05:56:13.561Z,2.20
2023-02-06T05:59:18.464Z,2.08
2023-02-06T06:02:21.886Z,1.85
2023-02-06T06:05:25.829Z,2.35
2023-02-06T06:08:29.359Z,1.63
2023-02-06T06:11:33.316Z,1.42
2023-02-06T06:14:38.040Z,1.35
2023-02-06T06:17:41.687Z,2.40
2023-02-06T06:20:45.200Z,1.88
2023-02-06T06:23:48.592Z,1.85
2023-02-06T06:26:52.388Z,1.45
2023-02-06T06:29:57.377Z,2.60
2023-02-06T06:33:04.067Z,2.30
2023-02-06T06:36:08.662Z,1.63
2023-02-06T06:39:12.456Z,2.17
2023-02-06T06:42:17.533Z,2.38
2023-02-06T06:45:22.523Z,1.75
2023-02-06T06:48:26.005Z,2.17
2023-02-06T06:51:30.126Z,1.75
2023-02-06T06:54:33.899Z,2.03
2023-02-06T06:57:37.540Z,2.78
2023-02-06T07:00:45.943Z,2.05
2023-02-06T07:03:49.826Z,1.83
2023-02-06T07:06:59.622Z,1.95
2023-02-06T07:10:07.002Z,1.70
2023-02-06T07:13:10.660Z,1.98
2023-02-06T07:16:24.219Z,2.35
2023-02-06T07:19:30.230Z,1.80
2023-02-06T07:22:36.733Z,2.08
2023-02-06T07:25:44.833Z,1.55
2023-02-06T07:28:49.813Z,2.00
2023-02-06T07:31:59.904Z,2.17
2023-02-06T07:35:15.511Z,1.95
2023-02-06T07:38:19.319Z,1.85
2023-02-06T07:41:24.297Z,2.03
2023-02-06T07:44:28.464Z,2.40
2023-02-06T07:47:42.381Z,2.25
2023-02-06T07:50:55.320Z,1.67
2023-02-06T07:54:04.544Z,1.63
2023-02-06T07:57:08.162Z,2.03
2023-02-06T08:00:26.687Z,2.50
2023-02-06T08:03:46.822Z,2.05
2023-02-06T08:06:54.582Z,1.45
2023-02-06T08:09:58.351Z,1.67
2023-02-06T08:13:03.760Z,1.67
2023-02-06T08:21:21.613Z,1.75
2023-02-06T08:24:30.068Z,2.42
2023-02-06T08:27:42.153Z,1.70
2023-02-06T08:34:04.057Z,2.47
2023-02-06T08:37:32.850Z,2.22
2023-02-06T08:45:04.395Z,2.00
2023-02-06T08:48:22.911Z,1.95
2023-02-06T08:55:57.927Z,1.98
2023-02-06T09:25:44.634Z,2.50
2023-02-06T09:33:37.417Z,2.55
2023-02-06T09:37:32.488Z,2.65
2023-02-06T09:41:11.954Z,2.60
2023-02-06T09:45:04.554Z,2.35
2023-02-06T09:48:30.160Z,2.53
2023-02-06T09:51:52.354Z,2.22
2023-02-06T09:55:02.954Z,3.78
2023-02-06T09:58:27.960Z,2.40
2023-02-06T10:01:40.077Z,2.55
2023-02-06T10:04:48.351Z,2.97
2023-02-06T10:08:02.546Z,2.70
2023-02-06T10:12:07.703Z,3.03
2023-02-06T10:15:21.012Z,2.80
2023-02-06T10:18:48.050Z,3.22
2023-02-06T10:22:14.082Z,2.38
2023-02-06T10:25:21.469Z,2.70
2023-02-06T10:28:29.956Z,2.20
2023-02-06T10:32:04.029Z,2.50
2023-02-06T10:35:22.269Z,3.10
2023-02-06T10:38:39.078Z,2.45
2023-02-06T10:41:54.803Z,1.48
2023-02-06T10:45:47.690Z,1.80
2023-02-06T10:52:50.432Z,1.60
2023-02-06T10:55:56.496Z,1.75
2023-02-06T10:59:02.945Z,2.03
2023-02-06T11:02:18.656Z,1.60
2023-02-06T11:05:24.227Z,1.70
2023-02-06T11:08:37.796Z,2.70
2023-02-06T11:24:28.351Z,1.83
2023-02-06T11:27:31.888Z,1.98
2023-02-06T12:15:48.830Z,1.83
2023-02-06T12:18:56.007Z,2.15
2023-02-06T12:22:03.130Z,2.30
2023-02-06T12:29:20.801Z,2.92
2023-02-06T12:32:52.652Z,1.92
2023-02-06T12:36:20.482Z,1.92
2023-02-06T12:39:35.396Z,2.63
2023-02-06T12:42:44.805Z,1.90
2023-02-06T12:45:52.916Z,2.35
2023-02-06T12:48:58.840Z,1.85
2023-02-06T12:52:37.140Z,2.45
2023-02-06T12:55:43.811Z,2.70
2023-02-06T12:59:06.286Z,2.55
2023-02-06T13:02:25.923Z,1.90
2023-02-06T13:05:31.683Z,2.20
2023-02-06T13:09:53.147Z,1.70
2023-02-06T13:13:26.572Z,2.10
2023-02-06T13:21:19.411Z,2.30
2023-02-06T13:24:23.132Z,2.58
2023-02-06T13:27:26.953Z,2.42
2023-02-06T13:31:11.627Z,2.50
2023-02-06T13:34:18.583Z,2.70
2023-02-06T13:37:22.359Z,2.78
2023-02-06T13:40:35.271Z,4.60
2023-02-06T13:44:07.610Z,3.30
2023-02-06T13:47:46.438Z,3.33
2023-02-06T13:51:01.855Z,3.30
2023-02-06T13:54:17.470Z,2.58
2023-02-06T13:57:34.383Z,2.83
2023-02-06T14:00:43.270Z,4.32
2023-02-06T14:04:15.343Z,4.40
2023-02-06T14:07:31.992Z,3.20
2023-02-06T14:14:43.713Z,3.67
2023-02-06T14:18:29.661Z,3.38
2023-02-06T14:21:38.867Z,3.50
2023-02-06T14:25:03.950Z,2.50
2023-02-06T14:28:18.148Z,2.65
2023-02-06T14:31:29.839Z,2.50
2023-02-06T14:34:42.713Z,3.20
2023-02-06T14:37:53.956Z,2.88
2023-02-06T14:40:59.823Z,2.58
2023-02-06T14:44:03.296Z,2.40
2023-02-06T14:47:06.846Z,1.70
2023-02-06T14:50:16.757Z,1.50
2023-02-06T14:53:23.623Z,1.45
2023-02-06T14:56:31.315Z,1.83
2023-02-06T14:59:35.969Z,1.77
2023-02-06T15:02:39.595Z,1.90
2023-02-06T15:05:43.451Z,2.20
2023-02-06T15:08:50.051Z,2.00
2023-02-06T15:11:56.485Z,2.40
2023-02-06T15:15:02.638Z,1.40
2023-02-06T15:18:07.318Z,1.38
2023-02-06T15:21:14.317Z,2.35
2023-02-06T15:24:25.348Z,2.38
2023-02-06T15:27:31.889Z,1.85
2023-02-06T15:30:37.205Z,2.25
2023-02-06T15:33:42.494Z,1.58
2023-02-06T15:36:46.351Z,1.30
2023-02-06T15:39:50.448Z,1.23
2023-02-06T15:42:55.430Z,1.70
2023-02-06T15:46:00.664Z,1.58
2023-02-06T15:49:04.166Z,1.52
2023-02-06T15:52:07.554Z,1.40
2023-02-06T15:55:23.208Z,1.48
2023-02-06T15:58:28.151Z,1.02
2023-02-06T16:01:32.443Z,1.75
2023-02-06T16:04:36.968Z,1.55
2023-02-06T16:07:40.792Z,1.35
2023-02-06T16:10:45.370Z,1.65
2023-02-06T16:13:50.205Z,1.30
2023-02-06T16:17:03.507Z,2.15
2023-02-06T16:20:08.477Z,2.30
2023-02-06T16:23:22.554Z,2.13
2023-02-06T16:26:27.135Z,2.28
2023-02-06T16:29:33.363Z,2.10
2023-02-06T16:32:36.727Z,1.73
2023-02-06T16:35:40.353Z,2.17
2023-02-06T16:38:48.429Z,2.55
2023-02-06T16:41:57.930Z,4.13
2023-02-06T16:45:03.918Z,2.90
2023-02-06T16:48:11.226Z,1.70
2023-02-06T16:51:17.591Z,2.22
2023-02-06T16:54:24.469Z,2.10
2023-02-06T16:57:29.927Z,2.28
2023-02-06T17:00:35.055Z,2.45
2023-02-06T17:03:38.755Z,1.98
2023-02-06T17:06:42.794Z,2.45
2023-02-06T17:09:46.374Z,2.30
2023-02-06T17:12:50.401Z,2.95
2023-02-06T17:15:56.092Z,3.08
2023-02-06T17:18:59.681Z,3.17
2023-02-06T17:22:03.303Z,2.60
2023-02-06T17:25:07.244Z,2.55
2023-02-06T17:28:12.650Z,2.70
2023-02-06T17:31:33.643Z,3.17
2023-02-06T17:35:08.483Z,3.13
2023-02-06T17:38:26.716Z,3.90
2023-02-06T17:41:31.345Z,3.95
2023-02-06T17:45:15.562Z,3.42
2023-02-06T17:49:05.529Z,3.30
2023-02-06T17:52:10.270Z,3.88
2023-02-06T17:55:25.738Z,3.65
2023-02-06T17:59:00.105Z,4.45
2023-02-06T18:02:03.729Z,4.55
2023-02-06T18:05:11.199Z,5.22
2023-02-06T18:09:10.240Z,5.80
2023-02-06T18:12:15.303Z,5.57
2023-02-06T18:15:19.159Z,5.55
2023-02-06T18:18:23.113Z,4.57
2023-02-06T18:21:29.090Z,5.05
2023-02-06T18:24:32.479Z,5.40
2023-02-06T18:27:38.073Z,6.32
2023-02-06T18:30:41.970Z,5.90
2023-02-06T18:33:45.646Z,5.68
2023-02-06T18:36:49.230Z,5.45
2023-02-06T18:39:54.065Z,5.95
2023-02-06T18:42:58.907Z,4.68
2023-02-06T18:46:07.700Z,5.60
2023-02-06T18:49:11.114Z,6.03
2023-02-06T18:52:14.610Z,6.63
2023-02-06T18:55:18.149Z,8.43
2023-02-06T18:58:22.894Z,9.77
2023-02-06T19:01:27.114Z,8.57
2023-02-06T19:04:30.552Z,8.63
2023-02-06T19:07:34.139Z,6.03
2023-02-06T19:10:38.061Z,4.43
2023-02-06T19:13:43.176Z,5.25
2023-02-06T19:16:48.942Z,5.75
2023-02-06T19:19:52.466Z,5.80
2023-02-06T19:22:56.960Z,4.60
2023-02-06T19:26:00.394Z,4.72
2023-02-06T19:29:05.250Z,4.75
2023-02-06T19:32:10.434Z,4.22
2023-02-06T19:35:14.473Z,5.63
2023-02-06T19:38:17.822Z,5.30
2023-02-06T19:41:23.914Z,6.00
2023-02-06T19:44:29.447Z,6.60
2023-02-06T19:47:32.838Z,6.22
2023-02-06T19:50:36.525Z,7.50
2023-02-06T19:53:45.190Z,7.32
2023-02-06T19:56:49.186Z,6.43
2023-02-06T19:59:54.351Z,5.95
2023-02-06T20:02:57.926Z,5.60
2023-02-06T20:06:02.476Z,6.05
2023-02-06T20:09:06.623Z,7.03
2023-02-06T20:12:10.308Z,6.50
2023-02-06T20:15:15.249Z,6.85
2023-02-06T20:18:18.719Z,6.28
2023-02-06T20:21:26.739Z,6.90
2023-02-06T20:24:31.318Z,6.32
2023-02-06T20:27:34.751Z,5.07
2023-02-06T20:30:39.880Z,5.38
2023-02-06T20:33:43.853Z,6.50
2023-02-06T20:36:47.600Z,6.30
2023-02-06T20:39:52.088Z,5.65
2023-02-06T20:42:55.376Z,6.00
2023-02-06T20:46:00.082Z,5.75
2023-02-06T20:49:04.322Z,5.10
2023-02-06T20:52:07.768Z,4.95
2023-02-06T20:55:11.441Z,5.43
2023-02-06T20:58:14.991Z,4.85
2023-02-06T21:01:22.006Z,5.25
2023-02-06T21:04:25.729Z,4.43
2023-02-06T21:07:29.385Z,4.70
2023-02-06T21:10:32.932Z,5.03
2023-02-06T21:13:36.364Z,3.90
2023-02-06T21:16:41.441Z,3.80
2023-02-06T21:19:44.810Z,3.42
2023-02-06T21:22:52.693Z,4.07
2023-02-06T21:25:56.999Z,3.80
2023-02-06T21:29:02.216Z,4.28
2023-02-06T21:32:13.737Z,4.03
2023-02-06T21:35:17.840Z,3.83
2023-02-06T21:38:21.548Z,3.78
2023-02-06T21:41:25.134Z,3.60
2023-02-06T21:44:29.075Z,3.67
2023-02-06T21:47:34.020Z,3.42
2023-02-06T21:50:39.655Z,3.30
2023-02-06T21:53:43.886Z,4.93
2023-02-06T21:56:47.287Z,3.70
2023-02-06T21:59:50.729Z,3.83
2023-02-06T22:02:55.665Z,4.22
2023-02-06T22:06:08.214Z,4.43
2023-02-06T22:09:15.829Z,5.47
2023-02-06T22:12:19.811Z,4.43
2023-02-06T22:15:23.625Z,4.70
2023-02-06T22:18:28.501Z,5.18
2023-02-06T22:21:32.701Z,5.07
2023-02-06T22:24:36.181Z,4.60
2023-02-06T22:27:39.915Z,4.18
2023-02-06T22:30:43.443Z,4.72
2023-02-06T22:33:48.175Z,5.20
2023-02-06T22:36:53.912Z,4.90
2023-02-06T22:39:57.352Z,5.45
2023-02-06T22:43:00.806Z,5.75
2023-02-06T22:46:04.712Z,6.35
2023-02-06T22:49:10.080Z,5.18
2023-02-06T22:52:27.591Z,5.35
2023-02-06T22:55:51.739Z,5.82
2023-02-06T22:58:55.414Z,6.28
2023-02-06T23:02:00.148Z,5.82
2023-02-06T23:05:05.042Z,5.05
2023-02-06T23:08:08.852Z,5.28
2023-02-06T23:11:12.496Z,5.35
2023-02-06T23:14:16.629Z,5.00
2023-02-06T23:17:20.068Z,5.32
2023-02-06T23:20:26.783Z,4.13
2023-02-06T23:23:30.328Z,3.95
2023-02-06T23:26:33.994Z,3.25
2023-02-06T23:29:37.509Z,3.55
2023-02-06T23:32:40.982Z,3.70
2023-02-06T23:35:45.771Z,3.17
2023-02-06T23:38:49.577Z,3.50
2023-02-06T23:41:54.909Z,3.05
2023-02-06T23:44:58.414Z,3.42
2023-02-06T23:48:01.953Z,3.47
2023-02-06T23:51:07.071Z,3.38
2023-02-06T23:54:10.867Z,3.72
2023-02-06T23:57:14.274Z,4.85
